createdAt,value
2023-04-16T00:01:04.219Z,100247.44
2023-04-16T00:03:32.485Z,100240.34
2023-04-16T00:06:00.830Z,100262.72
2023-04-16T00:08:28.749Z,100253.84
2023-04-16T00:10:56.689Z,100251.63
2023-04-16T00:13:28.116Z,100243.25
2023-04-16T00:15:56.014Z,100252.28
2023-04-16T00:18:23.819Z,100252.97
2023-04-16T00:20:52.164Z,100258.63
2023-04-16T00:23:20.337Z,100245.78
2023-04-16T00:25:48.254Z,100249.13
2023-04-16T00:28:16.113Z,100255.25
2023-04-16T00:30:44.129Z,100254.78
2023-04-16T00:33:14.397Z,100255.72
2023-04-16T00:35:42.249Z,100257.44
2023-04-16T00:38:10.099Z,100260.97
2023-04-16T00:40:38.397Z,100265.88
2023-04-16T00:43:06.405Z,100267.72
2023-04-16T00:45:34.610Z,100261.81
2023-04-16T00:48:03.273Z,100269.75
2023-04-16T00:50:31.311Z,100253.69
2023-04-16T00:52:59.359Z,100251.22
2023-04-16T00:55:27.206Z,100260.72
2023-04-16T00:57:55.106Z,100249.06
2023-04-16T01:00:23.063Z,100246.88
2023-04-16T01:02:54.964Z,100271.78
2023-04-16T01:05:23.056Z,100274.47
2023-04-16T01:07:51.366Z,100265.22
2023-04-16T01:10:19.414Z,100254.78
2023-04-16T01:12:47.396Z,100259.72
2023-04-16T01:15:15.394Z,100269.56
2023-04-16T01:17:46.374Z,100261.22
2023-04-16T01:20:14.732Z,100251.41
2023-04-16T01:22:42.956Z,100262.59
2023-04-16T01:25:14.661Z,100260.97
2023-04-16T01:27:42.535Z,100252.78
2023-04-16T01:30:10.761Z,100250.19
2023-04-16T01:32:52.241Z,100249.59
2023-04-16T01:35:20.189Z,100261.13
2023-04-16T01:37:50.300Z,100250.75
2023-04-16T01:40:18.859Z,100251.56
2023-04-16T01:42:46.719Z,100261.41
2023-04-16T01:45:14.772Z,100263.28
2023-04-16T01:47:45.563Z,100266.66
2023-04-16T01:50:13.524Z,100260.69
2023-04-16T01:52:41.431Z,100262.31
2023-04-16T01:55:10.049Z,100257.47
2023-04-16T01:57:38.706Z,100277.06
2023-04-16T02:00:08.583Z,100262.03
2023-04-16T02:02:46.882Z,100268.59
2023-04-16T02:05:20.890Z,100275.97
2023-04-16T02:07:48.756Z,100273.84
2023-04-16T02:10:17.625Z,100263.47
2023-04-16T02:12:46.435Z,100276.56
2023-04-16T02:15:16.476Z,100279.03
2023-04-16T02:17:46.790Z,100277.38
2023-04-16T02:20:14.852Z,100274.69
2023-04-16T02:22:49.742Z,100269.50
2023-04-16T02:25:20.806Z,100282.09
2023-04-16T02:27:51.570Z,100284.03
2023-04-16T02:30:34.060Z,100271.16
2023-04-16T02:33:05.598Z,100279.31
2023-04-16T02:35:35.354Z,100265.69
2023-04-16T02:38:04.485Z,100288.09
2023-04-16T02:40:32.835Z,100285.06
2023-04-16T02:43:01.225Z,100291.38
2023-04-16T02:45:29.290Z,100282.66
2023-04-16T02:47:57.232Z,100293.03
2023-04-16T02:50:25.057Z,100282.66
2023-04-16T02:52:52.973Z,100276.09
2023-04-16T02:55:20.880Z,100294.16
2023-04-16T02:57:48.780Z,100287.59
2023-04-16T03:00:16.806Z,100292.53
2023-04-16T03:02:44.829Z,100282.97
2023-04-16T03:05:12.969Z,100292.47
2023-04-16T03:07:41.036Z,100305.31
2023-04-16T03:10:09.375Z,100296.28
2023-04-16T03:12:37.317Z,100298.22
2023-04-16T03:15:08.268Z,100299.88
2023-04-16T03:17:36.483Z,100313.25
2023-04-16T03:20:05.287Z,100299.06
2023-04-16T03:22:33.167Z,100311.88
2023-04-16T03:25:01.484Z,100323.63
2023-04-16T03:27:29.417Z,100312.44
2023-04-16T03:29:57.406Z,100304.75
2023-04-16T03:32:26.185Z,100313.22
2023-04-16T03:34:54.276Z,100306.38
2023-04-16T03:37:24.371Z,100311.56
2023-04-16T03:39:52.504Z,100328.75
2023-04-16T03:42:20.310Z,100319.47
2023-04-16T03:44:48.239Z,100331.75
2023-04-16T03:47:17.330Z,100344.31
2023-04-16T03:49:46.691Z,100338.31
2023-04-16T03:52:14.753Z,100330.66
2023-04-16T03:54:42.983Z,100330.72
2023-04-16T03:57:28.635Z,100335.84
2023-04-16T04:00:02.234Z,100350.56
2023-04-16T04:02:42.170Z,100330.41
2023-04-16T04:05:17.655Z,100335.03
2023-04-16T04:07:46.939Z,100330.94
2023-04-16T04:10:16.390Z,100337.19
2023-04-16T04:12:44.474Z,100325.22
2023-04-16T04:15:13.287Z,100333.66
2023-04-16T04:17:43.372Z,100338.56
2023-04-16T04:20:12.160Z,100348.09
2023-04-16T04:22:41.788Z,100359.00
2023-04-16T04:25:11.171Z,100343.75
2023-04-16T04:27:39.205Z,100342.66
2023-04-16T04:30:08.516Z,100351.31
2023-04-16T04:32:36.642Z,100358.97
2023-04-16T04:35:04.713Z,100361.41
2023-04-16T04:37:32.623Z,100360.06
2023-04-16T04:40:04.409Z,100369.34
2023-04-16T04:42:32.342Z,100376.72
2023-04-16T04:45:00.109Z,100370.94
2023-04-16T04:47:29.425Z,100386.22
2023-04-16T04:49:57.320Z,100370.94
2023-04-16T04:52:26.082Z,100374.78
2023-04-16T04:54:54.075Z,100386.50
2023-04-16T04:57:22.055Z,100379.72
2023-04-16T04:59:52.781Z,100374.78
2023-04-16T05:02:21.139Z,100380.81
2023-04-16T05:04:49.149Z,100391.75
2023-04-16T05:07:17.104Z,100386.84
2023-04-16T05:09:45.048Z,100389.91
2023-04-16T05:12:12.987Z,100402.75
2023-04-16T05:14:40.943Z,100405.19
2023-04-16T05:17:08.994Z,100401.09
2023-04-16T05:19:37.255Z,100416.38
2023-04-16T05:22:05.286Z,100420.47
2023-04-16T05:24:33.094Z,100417.19
2023-04-16T05:27:01.563Z,100427.56
2023-04-16T05:29:29.442Z,100434.91
2023-04-16T05:31:57.336Z,100420.72
2023-04-16T05:34:25.118Z,100428.38
2023-04-16T05:36:52.926Z,100433.25
2023-04-16T05:39:21.394Z,100435.41
2023-04-16T05:41:49.267Z,100436.25
2023-04-16T05:44:17.167Z,100450.66
2023-04-16T05:46:45.154Z,100450.84
2023-04-16T05:49:13.101Z,100454.69
2023-04-16T05:51:41.153Z,100465.78
2023-04-16T05:54:09.069Z,100462.47
2023-04-16T05:56:36.896Z,100476.16
2023-04-16T05:59:04.721Z,100468.41
2023-04-16T06:01:34.488Z,100475.06
2023-04-16T06:04:02.684Z,100474.91
2023-04-16T06:06:30.908Z,100464.72
2023-04-16T06:08:58.900Z,100469.50
2023-04-16T06:11:27.700Z,100471.88
2023-04-16T06:13:55.630Z,100487.31
2023-04-16T06:16:23.586Z,100472.50
2023-04-16T06:18:51.493Z,100482.53
2023-04-16T06:21:19.529Z,100480.91
2023-04-16T06:23:47.420Z,100478.63
2023-04-16T06:26:15.293Z,100478.22
2023-04-16T06:28:43.383Z,100478.94
2023-04-16T06:31:14.325Z,100470.56
2023-04-16T06:33:42.276Z,100476.03
2023-04-16T06:36:11.656Z,100493.84
2023-04-16T06:38:40.180Z,100482.88
2023-04-16T06:41:08.410Z,100485.50
2023-04-16T06:43:36.440Z,100486.56
2023-04-16T06:46:05.448Z,100488.13
2023-04-16T06:48:33.254Z,100487.34
2023-04-16T06:51:01.612Z,100493.22
2023-04-16T06:53:29.449Z,100499.09
2023-04-16T06:55:57.366Z,100498.78
2023-04-16T06:58:25.437Z,100488.41
2023-04-16T07:00:53.442Z,100492.97
2023-04-16T07:03:21.547Z,100495.25
2023-04-16T07:05:49.560Z,100495.72
2023-04-16T07:08:17.636Z,100488.06
2023-04-16T07:10:50.052Z,100507.91
2023-04-16T07:13:18.970Z,100503.16
2023-04-16T07:15:49.109Z,100506.16
2023-04-16T07:18:17.309Z,100510.72
2023-04-16T07:20:46.084Z,100513.59
2023-04-16T07:23:14.024Z,100508.31
2023-04-16T07:25:42.476Z,100505.47
2023-04-16T07:28:10.404Z,100507.88
2023-04-16T07:30:38.295Z,100504.56
2023-04-16T07:33:06.310Z,100511.78
2023-04-16T07:35:34.147Z,100498.53
2023-04-16T07:38:02.058Z,100509.44
2023-04-16T07:40:30.138Z,100507.69
2023-04-16T07:42:58.046Z,100514.03
2023-04-16T07:45:26.707Z,100511.88
2023-04-16T07:47:54.560Z,100501.72
2023-04-16T07:50:22.506Z,100516.16
2023-04-16T07:52:50.408Z,100509.34
2023-04-16T07:55:20.896Z,100520.28
2023-04-16T07:57:48.875Z,100525.16
2023-04-16T08:00:16.948Z,100528.34
2023-04-16T08:02:45.231Z,100531.91
2023-04-16T08:05:13.566Z,100524.88
2023-04-16T08:07:41.512Z,100521.78
2023-04-16T08:10:09.750Z,100528.63
2023-04-16T08:12:37.821Z,100525.72
2023-04-16T08:15:06.543Z,100523.69
2023-04-16T08:17:35.128Z,100530.91
2023-04-16T08:20:03.017Z,100529.91
2023-04-16T08:22:31.513Z,100537.88
2023-04-16T08:24:59.507Z,100534.50
2023-04-16T08:27:27.402Z,100539.84
2023-04-16T08:29:55.304Z,100538.53
2023-04-16T08:32:23.227Z,100541.28
2023-04-16T08:34:51.412Z,100535.63
2023-04-16T08:37:19.393Z,100536.13
2023-04-16T08:39:48.314Z,100539.38
2023-04-16T08:42:33.490Z,100529.69
2023-04-16T08:45:27.838Z,100535.59
2023-04-16T08:47:56.087Z,100546.56
2023-04-16T08:50:25.668Z,100549.41
2023-04-16T08:52:59.048Z,100550.56
2023-04-16T08:55:36.488Z,100539.84
2023-04-16T08:58:13.648Z,100547.81
2023-04-16T09:00:43.778Z,100540.31
2023-04-16T09:03:12.707Z,100543.22
2023-04-16T09:05:42.033Z,100542.06
2023-04-16T09:08:10.444Z,100543.00
2023-04-16T09:10:38.350Z,100551.06
2023-04-16T09:13:06.342Z,100543.59
2023-04-16T09:15:35.696Z,100541.94
2023-04-16T09:18:03.840Z,100542.88
2023-04-16T09:20:31.772Z,100546.47
2023-04-16T09:22:59.689Z,100545.13
2023-04-16T09:25:27.972Z,100548.84
2023-04-16T09:27:55.970Z,100548.25
2023-04-16T09:30:26.291Z,100545.13
2023-04-16T09:33:16.934Z,100553.75
2023-04-16T09:35:47.778Z,100545.13
2023-04-16T09:38:16.097Z,100556.19
2023-04-16T09:40:44.215Z,100555.09
2023-04-16T09:43:16.769Z,100552.78
2023-04-16T09:45:55.755Z,100545.75
2023-04-16T09:48:31.193Z,100542.06
2023-04-16T09:51:00.549Z,100546.03
2023-04-16T09:53:32.053Z,100540.59
2023-04-16T09:56:03.665Z,100539.84
2023-04-16T09:58:31.891Z,100547.91
2023-04-16T10:01:03.984Z,100544.75
2023-04-16T10:03:33.402Z,100550.84
2023-04-16T10:06:07.786Z,100547.53
2023-04-16T10:08:36.444Z,100547.44
2023-04-16T10:11:04.729Z,100543.50
2023-04-16T10:13:32.698Z,100544.50
2023-04-16T10:16:00.910Z,100541.84
2023-04-16T10:18:29.451Z,100536.63
2023-04-16T10:20:57.837Z,100537.59
2023-04-16T10:23:26.878Z,100535.94
2023-04-16T10:25:57.544Z,100540.53
2023-04-16T10:28:25.921Z,100536.59
2023-04-16T10:30:55.106Z,100534.84
2023-04-16T10:33:26.275Z,100541.44
2023-04-16T10:36:11.925Z,100544.41
2023-04-16T10:38:51.248Z,100552.72
2023-04-16T10:41:22.683Z,100537.16
2023-04-16T10:43:51.731Z,100537.25
2023-04-16T10:46:30.761Z,100524.00
2023-04-16T10:49:03.343Z,100528.91
2023-04-16T10:51:33.151Z,100534.16
2023-04-16T10:54:17.098Z,100519.19
2023-04-16T10:56:46.634Z,100522.09
2023-04-16T10:59:19.094Z,100516.09
2023-04-16T11:01:49.108Z,100522.31
2023-04-16T11:04:20.051Z,100524.78
2023-04-16T11:07:16.814Z,100517.38
2023-04-16T11:09:47.799Z,100521.47
2023-04-16T11:12:18.893Z,100523.09
2023-04-16T11:15:06.523Z,100515.47
2023-04-16T11:17:48.401Z,100510.53
2023-04-16T11:20:20.144Z,100513.44
2023-04-16T11:22:50.207Z,100505.84
2023-04-16T11:25:25.615Z,100513.09
2023-04-16T11:27:54.937Z,100508.78
2023-04-16T11:30:36.147Z,100504.78
2023-04-16T11:33:09.760Z,100505.44
2023-04-16T11:35:41.696Z,100497.72
2023-04-16T11:38:09.698Z,100512.38
2023-04-16T11:40:37.877Z,100491.31
2023-04-16T11:43:16.406Z,100495.13
2023-04-16T11:46:12.830Z,100495.69
2023-04-16T11:48:55.687Z,100495.28
2023-04-16T11:51:24.046Z,100487.94
2023-04-16T11:53:54.040Z,100501.88
2023-04-16T11:56:29.693Z,100480.78
2023-04-16T11:59:12.552Z,100488.75
2023-04-16T12:01:42.772Z,100485.34
2023-04-16T12:04:10.974Z,100470.28
2023-04-16T12:06:38.959Z,100478.88
2023-04-16T12:09:28.015Z,100485.97
2023-04-16T12:11:56.206Z,100482.53
2023-04-16T12:14:24.524Z,100468.09
2023-04-16T12:16:52.648Z,100470.47
2023-04-16T12:19:20.599Z,100473.00
2023-04-16T12:21:50.533Z,100465.06
2023-04-16T12:24:24.378Z,100469.91
2023-04-16T12:27:03.331Z,100471.63
2023-04-16T12:29:32.032Z,100453.16
2023-04-16T12:31:59.932Z,100462.75
2023-04-16T12:34:47.940Z,100458.13
2023-04-16T12:37:16.110Z,100466.81
2023-04-16T12:39:44.613Z,100465.41
2023-04-16T12:42:14.340Z,100446.59
2023-04-16T12:44:42.547Z,100450.00
2023-04-16T12:47:10.678Z,100456.91
2023-04-16T12:49:38.725Z,100443.00
2023-04-16T12:52:07.127Z,100452.16
2023-04-16T12:54:35.040Z,100453.66
2023-04-16T12:57:03.724Z,100452.16
2023-04-16T12:59:31.629Z,100452.75
2023-04-16T13:02:01.766Z,100462.50
2023-04-16T13:04:29.869Z,100460.25
2023-04-16T13:06:58.313Z,100450.56
2023-04-16T13:09:26.246Z,100442.38
2023-04-16T13:11:54.108Z,100439.06
2023-04-16T13:14:21.991Z,100437.19
2023-04-16T13:16:49.875Z,100425.94
2023-04-16T13:19:19.280Z,100438.41
2023-04-16T13:21:47.299Z,100420.06
2023-04-16T13:24:15.312Z,100430.44
2023-04-16T13:26:43.592Z,100427.25
2023-04-16T13:29:11.974Z,100423.97
2023-04-16T13:31:41.052Z,100435.97
2023-04-16T13:34:09.142Z,100434.63
2023-04-16T13:36:37.639Z,100430.28
2023-04-16T13:39:10.922Z,100429.59
2023-04-16T13:41:39.828Z,100436.03
2023-04-16T13:44:07.937Z,100429.63
2023-04-16T13:46:35.984Z,100433.84
2023-04-16T13:49:04.055Z,100430.72
2023-04-16T13:51:32.960Z,100436.16
2023-04-16T13:54:03.547Z,100430.25
2023-04-16T13:56:31.523Z,100423.97
2023-04-16T13:58:59.449Z,100419.72
2023-04-16T14:01:27.369Z,100436.50
2023-04-16T14:03:55.392Z,100438.38
2023-04-16T14:06:23.297Z,100441.19
2023-04-16T14:08:51.188Z,100440.94
2023-04-16T14:11:19.127Z,100441.91
2023-04-16T14:13:47.072Z,100450.06
2023-04-16T14:16:15.818Z,100439.78
2023-04-16T14:18:43.737Z,100438.38
2023-04-16T14:21:11.596Z,100434.50
2023-04-16T14:23:40.520Z,100435.91
2023-04-16T14:26:08.667Z,100433.31
2023-04-16T14:28:36.488Z,100443.28
2023-04-16T14:31:04.330Z,100431.72
2023-04-16T14:33:32.571Z,100428.69
2023-04-16T14:36:02.664Z,100431.16
2023-04-16T14:38:32.121Z,100444.22
2023-04-16T14:41:00.694Z,100441.88
2023-04-16T14:43:28.529Z,100440.16
2023-04-16T14:45:58.712Z,100449.31
2023-04-16T14:48:26.766Z,100443.38
2023-04-16T14:50:54.710Z,100439.09
2023-04-16T14:53:24.311Z,100438.97
2023-04-16T14:55:53.495Z,100437.34
2023-04-16T14:58:22.098Z,100445.28
2023-04-16T15:00:49.970Z,100451.97
2023-04-16T15:03:19.051Z,100448.59
2023-04-16T15:05:52.418Z,100430.81
2023-04-16T15:08:20.413Z,100448.47
2023-04-16T15:10:48.253Z,100444.53
2023-04-16T15:13:16.508Z,100444.53
2023-04-16T15:15:44.922Z,100452.03
2023-04-16T15:18:12.844Z,100456.88
2023-04-16T15:20:41.482Z,100459.56
2023-04-16T15:23:09.301Z,100451.97
2023-04-16T15:25:37.269Z,100451.75
2023-04-16T15:28:06.665Z,100445.91
2023-04-16T15:30:34.579Z,100453.38
2023-04-16T15:33:04.008Z,100448.53
2023-04-16T15:35:31.914Z,100449.97
2023-04-16T15:37:59.773Z,100465.78
2023-04-16T15:40:27.815Z,100466.00
2023-04-16T15:42:56.545Z,100472.81
2023-04-16T15:45:25.535Z,100467.22
2023-04-16T15:47:53.555Z,100463.72
2023-04-16T15:50:22.100Z,100478.97
2023-04-16T15:52:50.411Z,100470.97
2023-04-16T15:55:21.357Z,100482.00
2023-04-16T15:57:49.203Z,100481.41
2023-04-16T16:00:20.082Z,100476.31
2023-04-16T16:02:48.142Z,100478.31
2023-04-16T16:05:17.101Z,100471.69
2023-04-16T16:07:45.319Z,100480.97
2023-04-16T16:10:13.551Z,100487.66
2023-04-16T16:12:43.696Z,100490.75
2023-04-16T16:15:11.669Z,100488.28
2023-04-16T16:17:41.429Z,100479.69
2023-04-16T16:20:10.767Z,100488.81
2023-04-16T16:22:39.398Z,100499.97
2023-04-16T16:25:07.671Z,100493.59
2023-04-16T16:27:38.572Z,100491.41
2023-04-16T16:30:07.800Z,100497.06
2023-04-16T16:32:36.223Z,100493.22
2023-04-16T16:35:04.587Z,100497.88
2023-04-16T16:37:32.436Z,100499.78
2023-04-16T16:40:00.292Z,100508.31
2023-04-16T16:42:28.359Z,100508.03
2023-04-16T16:44:57.605Z,100502.78
2023-04-16T16:47:26.108Z,100506.28
2023-04-16T16:50:03.016Z,100502.66
2023-04-16T16:52:31.420Z,100518.44
2023-04-16T16:54:59.423Z,100522.34
2023-04-16T16:57:27.396Z,100525.69
2023-04-16T16:59:55.372Z,100524.66
2023-04-16T17:02:23.447Z,100533.34
2023-04-16T17:04:52.942Z,100537.44
2023-04-16T17:07:21.159Z,100536.16
2023-04-16T17:09:49.174Z,100533.34
2023-04-16T17:12:17.137Z,100539.63
2023-04-16T17:14:49.603Z,100558.53
2023-04-16T17:17:17.869Z,100542.91
2023-04-16T17:19:45.728Z,100543.25
2023-04-16T17:22:13.600Z,100554.16
2023-04-16T17:24:41.731Z,100549.72
2023-04-16T17:27:09.629Z,100559.50
2023-04-16T17:29:37.481Z,100558.59
2023-04-16T17:32:05.714Z,100567.78
2023-04-16T17:34:35.089Z,100573.69
2023-04-16T17:37:03.057Z,100569.69
2023-04-16T17:39:31.221Z,100580.84
2023-04-16T17:42:01.288Z,100581.28
2023-04-16T17:44:29.177Z,100592.94
2023-04-16T17:46:57.575Z,100583.97
2023-04-16T17:49:25.778Z,100590.13
2023-04-16T17:51:54.109Z,100581.06
2023-04-16T17:54:25.033Z,100601.94
2023-04-16T17:56:55.519Z,100600.47
2023-04-16T17:59:23.890Z,100599.66
2023-04-16T18:01:51.766Z,100603.63
2023-04-16T18:04:19.862Z,100619.03
2023-04-16T18:06:47.876Z,100616.75
2023-04-16T18:09:15.838Z,100613.75
2023-04-16T18:11:43.764Z,100616.31
2023-04-16T18:14:16.608Z,100616.81
2023-04-16T18:16:46.822Z,100620.25
2023-04-16T18:19:16.055Z,100623.63
2023-04-16T18:21:44.084Z,100627.09
2023-04-16T18:24:12.248Z,100617.78
2023-04-16T18:26:41.295Z,100625.22
2023-04-16T18:29:09.388Z,100638.28
2023-04-16T18:31:37.483Z,100638.28
2023-04-16T18:34:05.912Z,100647.53
2023-04-16T18:36:34.332Z,100651.44
2023-04-16T18:39:03.245Z,100652.22
2023-04-16T18:41:31.797Z,100654.47
2023-04-16T18:44:02.749Z,100647.88
2023-04-16T18:46:30.964Z,100643.66
2023-04-16T18:49:01.616Z,100657.97
2023-04-16T18:51:29.677Z,100650.56
2023-04-16T18:53:58.128Z,100662.72
2023-04-16T18:56:29.058Z,100658.56
2023-04-16T18:58:57.112Z,100659.41
2023-04-16T19:01:25.232Z,100649.09
2023-04-16T19:03:53.202Z,100665.13
2023-04-16T19:06:21.082Z,100658.97
2023-04-16T19:08:48.920Z,100670.81
2023-04-16T19:11:16.779Z,100670.31
2023-04-16T19:13:44.916Z,100665.59
2023-04-16T19:16:12.837Z,100674.63
2023-04-16T19:18:41.710Z,100677.56
2023-04-16T19:21:11.083Z,100679.41
2023-04-16T19:23:39.096Z,100671.03
2023-04-16T19:26:06.883Z,100684.34
2023-04-16T19:28:34.817Z,100670.69
2023-04-16T19:31:02.823Z,100677.69
2023-04-16T19:33:32.286Z,100685.16
2023-04-16T19:36:00.766Z,100690.44
2023-04-16T19:38:29.157Z,100698.56
2023-04-16T19:40:59.656Z,100698.78
2023-04-16T19:43:30.988Z,100689.72
2023-04-16T19:45:59.390Z,100695.44
2023-04-16T19:48:28.962Z,100697.41
2023-04-16T19:50:56.960Z,100684.91
2023-04-16T19:53:25.269Z,100691.75
2023-04-16T19:55:53.085Z,100688.84
2023-04-16T19:58:20.926Z,100697.03
2023-04-16T20:00:48.838Z,100687.13
2023-04-16T20:03:16.783Z,100686.63
2023-04-16T20:05:48.900Z,100696.44
2023-04-16T20:08:16.957Z,100686.66
2023-04-16T20:10:45.450Z,100691.28
2023-04-16T20:13:13.878Z,100686.72
2023-04-16T20:15:42.019Z,100695.28
2023-04-16T20:18:09.917Z,100685.63
2023-04-16T20:20:38.208Z,100698.00
2023-04-16T20:23:06.058Z,100693.47
2023-04-16T20:25:33.967Z,100689.16
2023-04-16T20:28:03.501Z,100697.63
2023-04-16T20:30:38.799Z,100699.31
2023-04-16T20:33:07.852Z,100685.75
2023-04-16T20:35:36.854Z,100686.13
2023-04-16T20:38:04.699Z,100701.72
2023-04-16T20:40:32.588Z,100696.00
2023-04-16T20:43:00.535Z,100693.34
2023-04-16T20:45:41.246Z,100686.88
2023-04-16T20:48:09.420Z,100695.91
2023-04-16T20:50:37.593Z,100686.09
2023-04-16T20:53:05.434Z,100686.09
2023-04-16T20:55:33.253Z,100690.28
2023-04-16T20:58:01.208Z,100689.44
2023-04-16T21:00:29.541Z,100691.81
2023-04-16T21:02:57.577Z,100688.69
2023-04-16T21:05:26.749Z,100681.34
2023-04-16T21:07:55.835Z,100697.78
2023-04-16T21:10:23.847Z,100698.34
2023-04-16T21:12:53.030Z,100688.59
2023-04-16T21:15:21.008Z,100687.81
2023-04-16T21:17:49.066Z,100696.81
2023-04-16T21:20:17.023Z,100687.56
2023-04-16T21:22:44.995Z,100699.56
2023-04-16T21:25:12.969Z,100685.38
2023-04-16T21:27:40.785Z,100699.06
2023-04-16T21:30:09.493Z,100689.47
2023-04-16T21:32:37.447Z,100696.88
2023-04-16T21:35:06.267Z,100696.91
2023-04-16T21:37:34.229Z,100688.75
2023-04-16T21:40:02.747Z,100693.22
2023-04-16T21:42:31.635Z,100698.19
2023-04-16T21:44:59.621Z,100685.66
2023-04-16T21:47:27.503Z,100687.38
2023-04-16T21:49:55.553Z,100690.13
2023-04-16T21:52:23.376Z,100689.84
2023-04-16T21:54:51.367Z,100686.81
2023-04-16T21:57:24.248Z,100691.25
2023-04-16T21:59:52.187Z,100675.72
2023-04-16T22:02:20.340Z,100687.19
2023-04-16T22:04:48.875Z,100700.66
2023-04-16T22:07:17.153Z,100684.31
2023-04-16T22:09:45.093Z,100680.53
2023-04-16T22:12:12.965Z,100690.09
2023-04-16T22:14:49.097Z,100675.03
2023-04-16T22:17:27.821Z,100678.59
2023-04-16T22:19:55.682Z,100686.56
2023-04-16T22:22:23.590Z,100687.41
2023-04-16T22:24:51.595Z,100674.38
2023-04-16T22:27:19.459Z,100678.75
2023-04-16T22:29:47.318Z,100679.84
2023-04-16T22:32:15.705Z,100681.47
2023-04-16T22:34:43.608Z,100669.47
2023-04-16T22:37:11.528Z,100676.88
2023-04-16T22:39:39.469Z,100671.13
2023-04-16T22:42:07.535Z,100677.88
2023-04-16T22:44:37.660Z,100666.75
2023-04-16T22:47:05.614Z,100684.50
2023-04-16T22:49:36.614Z,100665.66
2023-04-16T22:52:04.532Z,100670.59
2023-04-16T22:54:32.703Z,100675.53
2023-04-16T22:57:01.171Z,100672.28
2023-04-16T22:59:29.026Z,100681.56
2023-04-16T23:01:56.932Z,100663.53
2023-04-16T23:04:24.953Z,100668.16
2023-04-16T23:06:52.879Z,100675.50
2023-04-16T23:09:22.643Z,100649.25
2023-04-16T23:11:50.563Z,100660.44
2023-04-16T23:14:18.799Z,100638.63
2023-04-16T23:16:46.671Z,100657.81
2023-04-16T23:19:15.887Z,100640.81
2023-04-16T23:21:43.903Z,100666.28
2023-04-16T23:24:12.409Z,100653.97
2023-04-16T23:26:40.361Z,100658.88
2023-04-16T23:29:08.382Z,100661.91
2023-04-16T23:31:36.548Z,100664.38
2023-04-16T23:34:04.563Z,100660.00
2023-04-16T23:36:32.538Z,100660.00
2023-04-16T23:39:00.407Z,100650.69
2023-04-16T23:41:28.273Z,100647.69
2023-04-16T23:43:56.113Z,100650.16
2023-04-16T23:46:23.965Z,100648.25
2023-04-16T23:48:52.855Z,100644.97
2023-04-16T23:51:20.850Z,100645.81
2023-04-16T23:53:48.681Z,100646.06
2023-04-16T23:56:16.800Z,100628.03
2023-04-16T23:58:44.647Z,100627.19
